Time;durP1;ratioP1;P1;durP2;ratioP2;P2;SDS_P1;SDS_P2;PMS_P1;PMS_P2;Temp;Humidity;BMP_temperature;BMP_pressure;BME280_temperature;BME280_humidity;BME280_pressure;Samples;Min_cycle;Max_cycle;Signal;HPM_P1;HPM_P2
2022/01/03 00:00:13;;;;;;;8.77;2.25;;;11.40;99.90;;;;;;4082294;28;20056;-68
2022/01/03 00:02:33;;;;;;;12.93;2.33;;;11.50;99.90;;;;;;4089187;28;20124;-68
2022/01/03 00:04:53;;;;;;;13.50;2.55;;;11.50;99.90;;;;;;4061507;28;20045;-67
2022/01/03 00:07:12;;;;;;;10.98;3.00;;;11.50;99.90;;;;;;4092267;28;20045;-68
2022/01/03 00:09:32;;;;;;;10.88;2.33;;;11.40;99.90;;;;;;4080353;28;20095;-67
2022/01/03 00:11:52;;;;;;;8.82;2.25;;;11.40;99.90;;;;;;4071799;28;20038;-67
2022/01/03 00:14:11;;;;;;;14.73;3.33;;;11.40;99.90;;;;;;4083307;28;20068;-67
2022/01/03 00:16:30;;;;;;;14.57;2.92;;;11.40;99.90;;;;;;4048904;28;20080;-68
2022/01/03 00:18:52;;;;;;;13.18;2.63;;;11.40;99.90;;;;;;4070907;28;20094;-68
2022/01/03 00:21:17;;;;;;;11.40;2.67;;;11.30;99.90;;;;;;4042512;28;20037;-67
2022/01/03 00:23:38;;;;;;;20.80;3.58;;;11.40;99.90;;;;;;4083390;28;20129;-67
2022/01/03 00:26:00;;;;;;;10.93;2.83;;;11.30;99.90;;;;;;4042392;28;20050;-67
2022/01/03 00:28:23;;;;;;;13.93;3.25;;;11.30;99.90;;;;;;4059552;28;20584;-67
2022/01/03 00:30:46;;;;;;;17.08;2.47;;;11.40;99.90;;;;;;4059922;28;20103;-68
2022/01/03 00:33:06;;;;;;;17.88;2.80;;;11.30;99.90;;;;;;4083911;28;20092;-67
2022/01/03 00:35:26;;;;;;;13.82;2.42;;;11.40;99.90;;;;;;4054176;28;20044;-68
2022/01/03 00:37:47;;;;;;;19.65;3.30;;;11.30;99.90;;;;;;4069522;28;20047;-67
2022/01/03 00:40:07;;;;;;;15.60;3.10;;;11.30;99.90;;;;;;4082954;28;20083;-68
2022/01/03 00:42:26;;;;;;;8.13;2.30;;;11.30;99.90;;;;;;4063491;28;20032;-67
2022/01/03 00:44:46;;;;;;;14.43;2.95;;;11.30;99.90;;;;;;4054076;28;20486;-67
2022/01/03 00:47:05;;;;;;;14.80;3.08;;;11.30;99.90;;;;;;4063845;28;20080;-67
2022/01/03 00:49:24;;;;;;;9.85;2.75;;;11.30;99.90;;;;;;4077878;28;20586;-68
2022/01/03 00:51:44;;;;;;;19.13;3.70;;;11.30;99.90;;;;;;4086772;28;20221;-67
2022/01/03 00:54:04;;;;;;;16.25;2.97;;;11.30;99.90;;;;;;4072149;28;20049;-67
2022/01/03 00:56:46;;;;;;;21.20;4.00;;;11.30;99.90;;;;;;4059934;28;20045;-67
2022/01/03 00:59:12;;;;;;;20.45;3.70;;;11.30;99.90;;;;;;4061490;28;20071;-68
2022/01/03 01:01:37;;;;;;;24.38;4.10;;;11.20;99.90;;;;;;4063881;28;20117;-68
2022/01/03 01:03:59;;;;;;;15.80;4.03;;;11.30;99.90;;;;;;4059354;28;20053;-67
2022/01/03 01:06:21;;;;;;;17.02;3.67;;;11.20;99.90;;;;;;4071866;28;20055;-67
2022/01/03 01:08:42;;;;;;;12.18;2.70;;;11.20;99.90;;;;;;4048407;28;20121;-68
2022/01/03 01:11:04;;;;;;;18.30;2.80;;;11.30;99.90;;;;;;4051486;28;20101;-67
2022/01/03 01:13:24;;;;;;;24.25;4.10;;;11.20;99.90;;;;;;4070837;28;20164;-67
2022/01/03 01:15:43;;;;;;;17.85;3.70;;;11.20;99.90;;;;;;4065597;28;20057;-67
2022/01/03 01:18:04;;;;;;;17.92;4.20;;;11.20;99.90;;;;;;4059579;28;20047;-67
2022/01/03 01:20:25;;;;;;;16.88;3.40;;;11.20;99.90;;;;;;4077490;28;20426;-67
2022/01/03 01:22:45;;;;;;;14.98;3.20;;;11.20;99.90;;;;;;4076894;28;20401;-67
2022/01/03 01:27:50;;;;;;;22.42;4.20;;;11.10;99.90;;;;;;4062066;28;20028;-68
2022/01/03 01:30:11;;;;;;;23.73;4.43;;;11.10;99.90;;;;;;4087845;28;20283;-69
2022/01/03 01:32:31;;;;;;;17.65;3.28;;;11.10;99.90;;;;;;4087760;28;20086;-68
2022/01/03 01:34:52;;;;;;;24.15;4.53;;;11.10;99.90;;;;;;4089633;28;20107;-67
2022/01/03 01:37:16;;;;;;;18.00;3.75;;;11.10;99.90;;;;;;4070426;28;20042;-67
2022/01/03 01:39:36;;;;;;;27.27;3.92;;;11.10;99.90;;;;;;4060676;28;20044;-68
2022/01/03 01:42:04;;;;;;;23.50;4.40;;;11.00;99.90;;;;;;4068172;28;20035;-68
2022/01/03 01:44:24;;;;;;;21.42;3.97;;;11.10;99.90;;;;;;4065103;28;20419;-67
2022/01/03 01:46:53;;;;;;;25.05;4.03;;;11.10;99.90;;;;;;4087074;28;20045;-67
2022/01/03 01:49:18;;;;;;;15.68;3.00;;;11.10;99.90;;;;;;4081209;28;20124;-67
2022/01/03 01:51:37;;;;;;;22.17;3.92;;;11.00;99.90;;;;;;4059295;28;20157;-67
2022/01/03 01:53:57;;;;;;;18.60;4.20;;;11.00;99.90;;;;;;4089738;28;20333;-67
2022/01/03 01:56:20;;;;;;;21.42;4.25;;;11.10;99.90;;;;;;4079446;28;20075;-68
2022/01/03 01:59:10;;;;;;;10.35;2.67;;;11.00;99.90;;;;;;4058080;28;20499;-68
2022/01/03 02:01:56;;;;;;;16.70;3.30;;;11.00;99.90;;;;;;4085293;28;20104;-67
2022/01/03 02:04:47;;;;;;;17.10;3.25;;;11.00;99.90;;;;;;4026969;28;20100;-67
2022/01/03 02:07:35;;;;;;;20.05;3.35;;;10.90;99.90;;;;;;4095609;28;20113;-68
2022/01/03 02:10:08;;;;;;;14.18;2.40;;;11.00;99.90;;;;;;4060808;28;20461;-68
2022/01/03 02:12:30;;;;;;;14.88;3.63;;;11.00;99.90;;;;;;4070886;28;20249;-68
2022/01/03 02:14:52;;;;;;;18.00;3.75;;;10.90;99.90;;;;;;4075266;28;20051;-68
2022/01/03 02:17:12;;;;;;;17.27;3.58;;;10.90;99.90;;;;;;4060859;28;20144;-68
2022/01/03 02:19:35;;;;;;;20.08;3.47;;;11.00;99.90;;;;;;4077973;28;20101;-68
2022/01/03 02:21:55;;;;;;;15.07;2.85;;;10.90;99.90;;;;;;4095392;28;20148;-68
2022/01/03 02:24:14;;;;;;;20.58;3.70;;;10.90;99.90;;;;;;4069440;28;20094;-68
2022/01/03 02:26:34;;;;;;;15.18;3.47;;;10.90;99.90;;;;;;4101582;28;20063;-67
2022/01/03 02:28:53;;;;;;;12.48;3.03;;;10.90;99.90;;;;;;4085466;28;20044;-68
2022/01/03 02:31:14;;;;;;;25.42;3.83;;;10.90;99.90;;;;;;4052675;28;20458;-68
2022/01/03 02:33:33;;;;;;;20.55;3.53;;;10.80;99.90;;;;;;4068998;28;20064;-68
2022/01/03 02:35:52;;;;;;;18.88;4.10;;;10.80;99.90;;;;;;4061212;28;20044;-68
2022/01/03 02:38:13;;;;;;;17.35;3.85;;;10.80;99.90;;;;;;4083327;28;20098;-67
2022/01/03 02:40:32;;;;;;;19.83;3.63;;;10.80;99.90;;;;;;4091154;28;20187;-67
2022/01/03 02:42:51;;;;;;;15.02;3.38;;;10.80;99.90;;;;;;4087589;28;20144;-67
2022/01/03 02:45:15;;;;;;;16.90;3.97;;;10.80;99.90;;;;;;4056579;28;20234;-69
2022/01/03 02:47:35;;;;;;;10.77;2.97;;;10.80;99.90;;;;;;4054273;28;20049;-68
2022/01/03 02:49:54;;;;;;;14.68;2.83;;;10.80;99.90;;;;;;4057170;28;20105;-67
2022/01/03 02:52:13;;;;;;;20.85;3.80;;;10.80;99.90;;;;;;4058168;28;20420;-67
2022/01/03 02:54:32;;;;;;;17.83;3.42;;;10.80;99.90;;;;;;4066616;28;20040;-68
2022/01/03 02:56:51;;;;;;;13.80;3.33;;;10.80;99.90;;;;;;4083839;28;20056;-67
2022/01/03 02:59:15;;;;;;;21.30;3.47;;;10.70;99.90;;;;;;4063850;28;20040;-67
2022/01/03 03:01:34;;;;;;;18.42;3.15;;;10.80;99.90;;;;;;4065457;28;20048;-68
2022/01/03 03:03:54;;;;;;;17.95;4.30;;;10.70;99.90;;;;;;4074679;28;20049;-67
2022/01/03 03:06:13;;;;;;;21.30;3.33;;;10.70;99.90;;;;;;4047976;28;20096;-67
2022/01/03 03:08:32;;;;;;;12.63;2.67;;;10.70;99.90;;;;;;4095368;28;20100;-67
2022/01/03 03:10:52;;;;;;;20.00;3.53;;;10.70;99.90;;;;;;4066403;28;20503;-68
2022/01/03 03:13:11;;;;;;;16.92;3.38;;;10.70;99.90;;;;;;4061379;28;20128;-67
2022/01/03 03:15:31;;;;;;;17.95;2.40;;;10.70;99.90;;;;;;4086796;28;20214;-67
2022/01/03 03:17:51;;;;;;;13.65;2.80;;;10.70;99.90;;;;;;4072256;28;20077;-68
2022/01/03 03:20:19;;;;;;;14.20;2.80;;;10.70;99.90;;;;;;4058485;28;20185;-68
2022/01/03 03:22:39;;;;;;;9.30;2.58;;;10.70;99.90;;;;;;4073476;28;20067;-68
2022/01/03 03:25:09;;;;;;;15.02;2.88;;;10.70;99.90;;;;;;4082959;28;20511;-68
2022/01/03 03:27:29;;;;;;;20.55;3.50;;;10.70;99.90;;;;;;4091887;28;20326;-68
2022/01/03 03:29:50;;;;;;;24.88;4.97;;;10.70;99.90;;;;;;4093659;28;20084;-68
2022/01/03 03:32:10;;;;;;;15.52;3.08;;;10.70;99.90;;;;;;4093916;28;20128;-67
2022/01/03 03:34:29;;;;;;;18.17;3.03;;;10.60;99.90;;;;;;4064727;28;20083;-67
2022/01/03 03:36:49;;;;;;;14.13;3.38;;;10.60;99.90;;;;;;4084643;28;20064;-67
2022/01/03 03:39:08;;;;;;;19.08;4.00;;;10.60;99.90;;;;;;4037357;28;20054;-67
2022/01/03 03:41:27;;;;;;;14.75;3.25;;;10.60;99.90;;;;;;4095433;28;20136;-67
2022/01/03 03:43:46;;;;;;;15.02;3.42;;;10.60;99.90;;;;;;4086368;28;20049;-68
2022/01/03 03:46:07;;;;;;;18.45;3.55;;;10.60;99.90;;;;;;4062709;28;20098;-68
2022/01/03 03:48:26;;;;;;;12.00;2.75;;;10.60;99.90;;;;;;4096106;28;20052;-68
2022/01/03 03:50:46;;;;;;;22.45;3.42;;;10.60;99.90;;;;;;4069133;28;20032;-67
2022/01/03 03:53:06;;;;;;;17.30;3.42;;;10.60;99.90;;;;;;4089633;28;20041;-68
2022/01/03 03:55:25;;;;;;;14.02;3.30;;;10.60;99.90;;;;;;4056330;28;20552;-67
2022/01/03 03:57:45;;;;;;;18.55;3.42;;;10.70;99.90;;;;;;4086278;28;20128;-67
2022/01/03 04:00:08;;;;;;;11.30;2.90;;;10.70;99.90;;;;;;4055918;28;20037;-68
2022/01/03 04:02:27;;;;;;;14.63;3.15;;;10.60;99.90;;;;;;4087054;28;20094;-67
2022/01/03 04:04:46;;;;;;;15.98;3.00;;;10.70;99.90;;;;;;4048745;28;20505;-68
2022/01/03 04:07:05;;;;;;;17.00;3.33;;;10.70;99.90;;;;;;4091726;28;20059;-68
2022/01/03 04:09:24;;;;;;;16.33;2.92;;;10.70;99.90;;;;;;4084509;28;20061;-67
2022/01/03 04:11:44;;;;;;;11.98;3.03;;;10.60;99.90;;;;;;4086201;28;20083;-68
2022/01/03 04:14:03;;;;;;;20.75;3.80;;;10.60;99.90;;;;;;4093048;28;20095;-67
2022/01/03 04:16:22;;;;;;;16.92;3.92;;;10.60;99.90;;;;;;4068266;28;20042;-68
2022/01/03 04:18:42;;;;;;;18.73;3.83;;;10.50;99.90;;;;;;4046872;28;20080;-68
2022/01/03 04:21:01;;;;;;;18.48;3.67;;;10.50;99.90;;;;;;4031257;28;20244;-68
2022/01/03 04:23:20;;;;;;;22.63;4.38;;;10.50;99.90;;;;;;4054190;28;20033;-68
2022/01/03 04:25:39;;;;;;;18.63;3.70;;;10.50;99.90;;;;;;4067704;28;20542;-68
2022/01/03 04:27:58;;;;;;;14.70;3.13;;;10.50;99.90;;;;;;4066883;28;20044;-68
2022/01/03 04:30:18;;;;;;;13.35;3.22;;;10.60;99.90;;;;;;4075608;28;20432;-67
2022/01/03 04:32:37;;;;;;;16.10;3.10;;;10.50;99.90;;;;;;4092896;28;20044;-67
2022/01/03 04:34:56;;;;;;;20.50;3.55;;;10.60;99.90;;;;;;4085822;28;20870;-67
2022/01/03 04:37:15;;;;;;;19.17;3.38;;;10.50;99.90;;;;;;4059876;28;20407;-68
2022/01/03 04:39:35;;;;;;;13.05;2.80;;;10.50;99.90;;;;;;4084501;28;20057;-68
2022/01/03 04:41:54;;;;;;;14.80;3.05;;;10.50;99.90;;;;;;4065935;28;20091;-68
2022/01/03 04:44:13;;;;;;;12.35;3.05;;;10.50;99.90;;;;;;4085174;28;20040;-69
2022/01/03 04:46:36;;;;;;;12.05;2.78;;;10.50;99.90;;;;;;4053451;28;20122;-67
2022/01/03 04:48:55;;;;;;;18.23;3.25;;;10.50;99.90;;;;;;4048169;28;20092;-67
2022/01/03 04:51:15;;;;;;;16.23;3.10;;;10.50;99.90;;;;;;4054396;28;20580;-69
2022/01/03 04:53:39;;;;;;;14.55;2.75;;;10.50;99.90;;;;;;4073030;28;20546;-67
2022/01/03 04:55:58;;;;;;;11.55;3.40;;;10.50;99.90;;;;;;4077848;28;20100;-68
2022/01/03 04:58:18;;;;;;;19.02;3.58;;;10.50;99.90;;;;;;4060425;28;20060;-68
2022/01/03 05:00:38;;;;;;;15.93;3.25;;;10.50;99.90;;;;;;4061793;28;20536;-67
2022/01/03 05:02:57;;;;;;;16.65;3.38;;;10.50;99.90;;;;;;4069306;28;20556;-68
2022/01/03 05:05:17;;;;;;;21.02;3.38;;;10.40;99.90;;;;;;4067072;28;20396;-68
2022/01/03 05:07:36;;;;;;;14.43;2.85;;;10.50;99.90;;;;;;4052962;28;20096;-68
2022/01/03 05:09:55;;;;;;;19.48;3.80;;;10.50;99.90;;;;;;4063230;28;20040;-68
2022/01/03 05:12:16;;;;;;;19.02;3.30;;;10.50;99.90;;;;;;4052635;28;20036;-68
2022/01/03 05:14:35;;;;;;;17.45;3.20;;;10.50;99.90;;;;;;4069333;28;20083;-67
2022/01/03 05:16:57;;;;;;;22.23;3.38;;;10.50;99.90;;;;;;4082855;28;20040;-67
2022/01/03 05:19:16;;;;;;;17.30;3.53;;;10.50;99.90;;;;;;4045584;28;20100;-68
2022/01/03 05:21:35;;;;;;;20.35;3.20;;;10.50;99.90;;;;;;4080773;28;20036;-68
2022/01/03 05:23:54;;;;;;;16.63;3.08;;;10.50;99.90;;;;;;4061520;28;20084;-68
2022/01/03 05:26:14;;;;;;;12.68;2.90;;;10.50;99.90;;;;;;4037569;28;20076;-67
2022/01/03 05:28:33;;;;;;;18.50;3.03;;;10.50;99.90;;;;;;4075363;28;20484;-68
2022/01/03 05:30:52;;;;;;;30.17;3.85;;;10.60;99.90;;;;;;4091655;28;20048;-68
2022/01/03 05:33:12;;;;;;;15.63;3.88;;;10.60;99.90;;;;;;4083336;28;20040;-68
2022/01/03 05:35:31;;;;;;;15.57;3.03;;;10.50;99.90;;;;;;4060639;28;20503;-67
2022/01/03 05:37:50;;;;;;;17.23;3.47;;;10.60;99.90;;;;;;4051769;28;20033;-68
2022/01/03 05:40:10;;;;;;;16.92;3.47;;;10.60;99.90;;;;;;4061149;28;20091;-69
2022/01/03 05:42:29;;;;;;;9.50;2.42;;;10.60;99.90;;;;;;4079937;28;20083;-68
2022/01/03 05:44:48;;;;;;;15.18;3.30;;;10.60;99.90;;;;;;4036743;28;20044;-68
2022/01/03 05:47:08;;;;;;;17.33;3.15;;;10.60;99.90;;;;;;4096076;28;20071;-67
2022/01/03 05:49:27;;;;;;;17.67;3.38;;;10.60;99.90;;;;;;4089319;28;20040;-67
2022/01/03 05:51:47;;;;;;;18.35;3.30;;;10.50;99.90;;;;;;4088608;28;20059;-67
2022/01/03 05:54:06;;;;;;;24.00;4.22;;;10.60;99.90;;;;;;4057415;28;20036;-67
2022/01/03 05:56:26;;;;;;;22.13;3.55;;;10.60;99.90;;;;;;4071349;28;20041;-68
2022/01/03 05:58:45;;;;;;;16.50;2.78;;;10.50;99.90;;;;;;4087874;28;20123;-68
2022/01/03 06:01:05;;;;;;;15.23;3.30;;;10.60;99.90;;;;;;4087956;28;20040;-68
2022/01/03 06:03:24;;;;;;;12.05;3.38;;;10.60;99.90;;;;;;4081642;28;20397;-67
2022/01/03 06:06:53;;;;;;;20.42;3.92;;;10.60;99.90;;;;;;4075698;28;20076;-68
2022/01/03 06:08:26;;;;;;;14.43;2.80;;;10.50;99.90;;;;;;4063506;28;20546;-68
2022/01/03 06:10:46;;;;;;;20.98;3.90;;;10.50;99.90;;;;;;4071101;28;20132;-68
2022/01/03 06:13:05;;;;;;;16.30;3.47;;;10.40;99.90;;;;;;4069691;28;20043;-68
2022/01/03 06:15:25;;;;;;;16.67;2.85;;;10.50;99.90;;;;;;4084557;28;20507;-67
2022/01/03 06:17:45;;;;;;;20.67;4.03;;;10.50;99.90;;;;;;4042557;28;20052;-68
2022/01/03 06:20:05;;;;;;;12.88;3.00;;;10.50;99.90;;;;;;4084925;28;20044;-68
2022/01/03 06:22:24;;;;;;;20.20;2.95;;;10.50;99.90;;;;;;4079543;28;20507;-67
2022/01/03 06:24:44;;;;;;;19.48;3.65;;;10.50;99.90;;;;;;4084106;28;20607;-67
2022/01/03 06:27:05;;;;;;;14.98;3.20;;;10.50;99.90;;;;;;4058837;28;20049;-68
2022/01/03 06:29:24;;;;;;;14.07;3.28;;;10.50;99.90;;;;;;4087706;28;20044;-67
2022/01/03 06:31:44;;;;;;;17.77;3.63;;;10.50;99.90;;;;;;4047107;28;20037;-67
2022/01/03 06:34:04;;;;;;;13.40;2.90;;;10.50;99.90;;;;;;4084049;28;20125;-67
2022/01/03 06:36:23;;;;;;;14.52;2.90;;;10.50;99.90;;;;;;4065064;28;20191;-68
2022/01/03 06:38:42;;;;;;;12.98;2.88;;;10.50;99.90;;;;;;4042301;28;20045;-68
2022/01/03 06:41:01;;;;;;;17.13;3.25;;;10.50;99.90;;;;;;4079576;28;20120;-68
2022/01/03 06:43:20;;;;;;;14.30;2.72;;;10.50;99.90;;;;;;4082338;28;20044;-68
2022/01/03 06:45:39;;;;;;;23.52;3.83;;;10.50;99.90;;;;;;4040489;28;20045;-67
2022/01/03 06:47:58;;;;;;;18.40;3.40;;;10.50;99.90;;;;;;4070425;28;20049;-67
2022/01/03 06:50:18;;;;;;;13.52;3.03;;;10.50;99.90;;;;;;4050331;28;20076;-68
2022/01/03 06:52:37;;;;;;;17.77;3.47;;;10.50;99.90;;;;;;4079148;28;20040;-67
2022/01/03 06:54:56;;;;;;;15.30;3.10;;;10.50;99.90;;;;;;4085918;28;20103;-68
2022/01/03 06:57:15;;;;;;;14.65;2.92;;;10.50;99.90;;;;;;4079680;28;20527;-67
2022/01/03 06:59:35;;;;;;;15.82;2.63;;;10.50;99.90;;;;;;4059497;28;20400;-68
2022/01/03 07:01:54;;;;;;;19.95;3.58;;;10.60;99.90;;;;;;4081704;28;20149;-66
2022/01/03 07:04:13;;;;;;;16.52;3.15;;;10.60;99.90;;;;;;4060495;28;20059;-68
2022/01/03 07:06:33;;;;;;;17.63;3.15;;;10.60;99.90;;;;;;4062792;28;20611;-67
2022/01/03 07:08:52;;;;;;;15.68;3.05;;;10.60;99.90;;;;;;4090972;28;20044;-67
2022/01/03 07:11:12;;;;;;;13.55;2.92;;;10.60;99.90;;;;;;4078474;28;20037;-68
2022/01/03 07:13:40;;;;;;;12.40;2.75;;;10.60;99.90;;;;;;4101359;28;20035;-68
2022/01/03 07:18:56;;;;;;;15.85;3.10;;;10.60;99.90;;;;;;4053128;28;20052;-68
2022/01/03 07:21:16;;;;;;;16.75;3.58;;;10.50;99.90;;;;;;4036586;28;20053;-68
2022/01/03 07:23:35;;;;;;;13.63;3.22;;;10.50;99.90;;;;;;4099546;28;20044;-67
2022/01/03 07:25:55;;;;;;;13.73;2.90;;;10.60;99.90;;;;;;4085838;28;20094;-67
2022/01/03 07:28:15;;;;;;;13.07;3.00;;;10.50;99.90;;;;;;4087662;28;20103;-67
2022/01/03 07:30:34;;;;;;;16.67;3.42;;;10.50;99.90;;;;;;4068072;28;20084;-68
2022/01/03 07:32:54;;;;;;;19.25;4.05;;;10.50;99.90;;;;;;4092520;28;20032;-68
2022/01/03 07:35:16;;;;;;;14.30;2.90;;;10.50;99.90;;;;;;4070751;28;20024;-68
2022/01/03 07:37:35;;;;;;;16.58;3.55;;;10.50;99.90;;;;;;4088287;28;20105;-68
2022/01/03 07:39:55;;;;;;;23.08;3.65;;;10.50;99.90;;;;;;4101256;28;20081;-67
2022/01/03 07:42:14;;;;;;;11.65;2.70;;;10.40;99.90;;;;;;4064410;28;20040;-67
2022/01/03 07:44:33;;;;;;;14.23;2.95;;;10.40;99.90;;;;;;4095820;28;20044;-68
2022/01/03 07:46:54;;;;;;;9.95;2.83;;;10.40;99.90;;;;;;4089036;28;20560;-67
2022/01/03 07:49:13;;;;;;;13.20;2.70;;;10.50;99.90;;;;;;4074443;28;20048;-67
2022/01/03 07:51:32;;;;;;;7.63;2.20;;;10.40;99.90;;;;;;4057880;28;20060;-67
2022/01/03 07:53:51;;;;;;;13.13;2.42;;;10.40;99.90;;;;;;4051220;28;20543;-67
2022/01/03 07:56:11;;;;;;;15.43;2.67;;;10.50;99.90;;;;;;4047007;28;20040;-67
2022/01/03 07:58:30;;;;;;;13.27;2.97;;;10.40;99.90;;;;;;4092298;28;20068;-67
2022/01/03 08:00:31;;;;;;;17.70;3.67;;;10.50;99.90;;;;;;4149227;28;20332;-67
2022/01/03 08:02:50;;;;;;;15.80;2.83;;;10.40;99.90;;;;;;4042452;28;20076;-67
2022/01/03 08:05:13;;;;;;;16.30;2.60;;;10.40;99.90;;;;;;4135858;28;20064;-68
2022/01/03 08:07:13;;;;;;;16.33;3.05;;;10.40;99.90;;;;;;4150959;28;20499;-67
2022/01/03 08:09:14;;;;;;;17.52;3.33;;;10.40;99.90;;;;;;4167066;28;20057;-67
2022/01/03 08:11:14;;;;;;;13.40;2.88;;;10.40;99.90;;;;;;4164182;28;20049;-67
2022/01/03 08:13:15;;;;;;;16.60;3.63;;;10.40;99.90;;;;;;4146627;28;20038;-67
2022/01/03 08:15:16;;;;;;;20.65;3.58;;;10.40;99.90;;;;;;4164646;28;20029;-67
2022/01/03 08:17:17;;;;;;;14.98;2.92;;;10.40;99.90;;;;;;4166170;28;20072;-67
2022/01/03 08:19:17;;;;;;;11.30;2.50;;;10.40;99.90;;;;;;4163642;28;20048;-67
2022/01/03 08:21:18;;;;;;;15.40;3.03;;;10.40;99.90;;;;;;4164478;28;20033;-67
2022/01/03 08:23:19;;;;;;;14.27;2.97;;;10.40;99.90;;;;;;4161576;28;20092;-67
2022/01/03 08:25:20;;;;;;;20.13;3.03;;;10.50;99.90;;;;;;4167844;28;20041;-68
2022/01/03 08:27:21;;;;;;;17.85;3.67;;;10.50;99.90;;;;;;4168685;28;20049;-67
2022/01/03 08:29:21;;;;;;;22.25;3.65;;;10.50;99.90;;;;;;4165163;28;20057;-67
2022/01/03 08:31:22;;;;;;;20.02;3.38;;;10.50;99.90;;;;;;4166402;28;20046;-68
2022/01/03 08:33:23;;;;;;;13.90;3.08;;;10.50;99.90;;;;;;4164010;28;20411;-67
2022/01/03 08:35:24;;;;;;;16.52;3.50;;;10.50;99.90;;;;;;4165831;28;20052;-68
2022/01/03 08:37:25;;;;;;;19.80;3.75;;;10.50;99.90;;;;;;4167182;28;20048;-67
2022/01/03 08:39:26;;;;;;;12.82;3.20;;;10.50;99.90;;;;;;4168639;28;20120;-67
2022/01/03 08:41:27;;;;;;;17.02;3.15;;;10.50;99.90;;;;;;4164475;28;20033;-67
2022/01/03 08:43:27;;;;;;;14.25;2.97;;;10.50;99.90;;;;;;4164486;28;20072;-67
2022/01/03 08:45:28;;;;;;;14.23;2.90;;;10.50;99.90;;;;;;4165109;28;20404;-67
2022/01/03 08:47:29;;;;;;;22.23;4.05;;;10.50;99.90;;;;;;4164376;28;20047;-68
2022/01/03 08:49:29;;;;;;;20.42;3.75;;;10.50;99.90;;;;;;4166461;28;20053;-67
2022/01/03 08:51:30;;;;;;;21.10;3.92;;;10.50;99.90;;;;;;4163904;28;20379;-67
2022/01/03 08:53:31;;;;;;;13.25;3.28;;;10.50;99.90;;;;;;4168198;28;20112;-68
2022/01/03 08:55:31;;;;;;;16.42;4.07;;;10.50;99.90;;;;;;4160716;28;20033;-68
2022/01/03 08:57:32;;;;;;;20.38;3.33;;;10.50;99.90;;;;;;4162427;28;20044;-68
2022/01/03 08:59:33;;;;;;;16.25;3.42;;;10.60;99.90;;;;;;4166468;28;20043;-68
2022/01/03 09:01:34;;;;;;;15.02;2.95;;;10.60;99.90;;;;;;4166380;28;20029;-68
2022/01/03 09:03:34;;;;;;;12.85;2.97;;;10.60;99.90;;;;;;4164939;28;20522;-68
2022/01/03 09:05:35;;;;;;;16.15;3.15;;;10.60;99.90;;;;;;4163230;28;20037;-67
2022/01/03 09:07:36;;;;;;;16.25;3.28;;;10.60;99.90;;;;;;4162190;28;20065;-67
2022/01/03 09:09:37;;;;;;;13.68;2.97;;;10.60;99.90;;;;;;4163369;28;20049;-67
2022/01/03 09:11:38;;;;;;;12.27;2.92;;;10.60;99.90;;;;;;4162756;28;20064;-67
2022/01/03 09:13:38;;;;;;;13.75;3.20;;;10.70;99.90;;;;;;4161355;28;20048;-67
2022/01/03 09:15:44;;;;;;;13.75;3.28;;;10.70;99.90;;;;;;4166095;28;20373;-68
2022/01/03 09:17:45;;;;;;;16.35;3.78;;;10.60;99.90;;;;;;4152064;28;20549;-68
2022/01/03 09:19:45;;;;;;;14.00;3.00;;;10.70;99.90;;;;;;4168290;28;20049;-68
2022/01/03 09:21:46;;;;;;;13.98;3.25;;;10.70;99.90;;;;;;4167172;28;20049;-67
2022/01/03 09:23:52;;;;;;;9.93;2.60;;;10.70;99.90;;;;;;4163597;28;20038;-67
2022/01/03 09:30:32;;;;;;;16.02;3.20;;;10.80;99.90;;;;;;4171215;28;20127;-67
2022/01/03 09:32:33;;;;;;;17.23;3.17;;;10.80;99.90;;;;;;4168149;28;20111;-67
2022/01/03 09:34:34;;;;;;;12.18;3.10;;;10.80;99.90;;;;;;4168267;28;20045;-67
2022/01/03 09:36:35;;;;;;;13.93;3.30;;;10.80;99.90;;;;;;4171892;28;20095;-67
2022/01/03 09:38:37;;;;;;;14.32;2.85;;;10.80;99.90;;;;;;4168595;28;20124;-67
2022/01/03 09:40:41;;;;;;;11.07;2.97;;;10.90;99.90;;;;;;4167063;28;20555;-67
2022/01/03 09:42:47;;;;;;;13.70;3.45;;;10.90;99.90;;;;;;4167075;28;20477;-67
2022/01/03 09:44:50;;;;;;;12.10;2.90;;;10.90;99.90;;;;;;4164617;28;20503;-67
2022/01/03 09:46:51;;;;;;;11.82;2.40;;;10.90;99.90;;;;;;4165621;28;20038;-67
2022/01/03 09:48:53;;;;;;;19.33;3.47;;;10.90;99.90;;;;;;4166419;28;20107;-67
2022/01/03 09:50:56;;;;;;;10.05;2.97;;;10.90;99.90;;;;;;4166703;28;20045;-67
2022/01/03 09:52:58;;;;;;;12.88;3.05;;;11.00;99.90;;;;;;4164634;28;20045;-68
2022/01/03 09:55:00;;;;;;;19.23;3.65;;;11.00;99.90;;;;;;4163169;28;20046;-68
2022/01/03 09:57:03;;;;;;;18.00;3.20;;;11.00;99.90;;;;;;4164948;28;20423;-67
2022/01/03 09:59:05;;;;;;;14.00;3.47;;;11.00;99.90;;;;;;4166870;28;20491;-68
2022/01/03 10:01:06;;;;;;;12.88;2.60;;;11.00;99.90;;;;;;4165394;28;20032;-67
2022/01/03 10:03:06;;;;;;;13.05;2.97;;;11.00;99.90;;;;;;4165583;28;20033;-67
2022/01/03 10:05:07;;;;;;;14.85;2.83;;;11.00;99.90;;;;;;4164950;28;20129;-68
2022/01/03 10:07:11;;;;;;;15.50;3.78;;;11.00;99.90;;;;;;4165481;28;20132;-67
2022/01/03 10:09:12;;;;;;;12.63;2.92;;;11.00;99.90;;;;;;4166507;28;20053;-67
2022/01/03 10:11:14;;;;;;;12.77;2.83;;;11.00;99.90;;;;;;4165680;28;20117;-67
2022/01/03 10:13:14;;;;;;;15.57;3.65;;;11.00;99.90;;;;;;4166006;28;21018;-67
2022/01/03 10:15:15;;;;;;;13.75;3.13;;;11.10;99.90;;;;;;4168697;28;20037;-68
2022/01/03 10:17:16;;;;;;;11.32;2.55;;;11.10;99.90;;;;;;4166911;28;20046;-67
2022/01/03 10:19:17;;;;;;;18.45;3.00;;;11.10;99.90;;;;;;4169107;28;20476;-67
2022/01/03 10:21:51;;;;;;;13.57;2.90;;;11.20;99.90;;;;;;4168561;28;20040;-67
2022/01/03 10:23:58;;;;;;;15.73;3.05;;;11.20;99.90;;;;;;4124667;28;20044;-67
2022/01/03 10:26:15;;;;;;;14.88;2.95;;;11.10;99.90;;;;;;4151310;28;20550;-67
2022/01/03 10:28:23;;;;;;;16.70;3.55;;;11.20;99.90;;;;;;4169269;28;20056;-67
2022/01/03 10:30:33;;;;;;;23.27;4.30;;;11.20;99.90;;;;;;4148674;28;20045;-67
2022/01/03 10:32:35;;;;;;;13.10;2.83;;;11.20;99.90;;;;;;4166344;28;20029;-67
2022/01/03 10:34:36;;;;;;;15.77;3.07;;;11.20;99.90;;;;;;4169076;28;20064;-67
2022/01/03 10:36:38;;;;;;;17.45;3.40;;;11.30;99.90;;;;;;4167671;28;20484;-67
2022/01/03 10:38:43;;;;;;;23.08;4.05;;;11.30;99.90;;;;;;4167882;28;20037;-67
2022/01/03 10:40:43;;;;;;;15.70;3.17;;;11.30;99.90;;;;;;4165128;28;20052;-67
2022/01/03 10:42:44;;;;;;;10.32;2.90;;;11.30;99.90;;;;;;4169602;28;20033;-67
2022/01/03 10:44:46;;;;;;;11.27;2.60;;;11.30;99.90;;;;;;4165732;28;20109;-67
2022/01/03 10:46:50;;;;;;;15.40;2.95;;;11.30;99.90;;;;;;4166619;28;20040;-68
2022/01/03 10:49:05;;;;;;;18.25;3.65;;;11.40;99.90;;;;;;4166812;28;20081;-70
2022/01/03 10:51:06;;;;;;;11.52;2.90;;;11.40;99.90;;;;;;4168018;28;20118;-68
2022/01/03 10:53:06;;;;;;;13.77;3.42;;;11.40;99.90;;;;;;4166083;28;20038;-68
2022/01/03 10:55:18;;;;;;;11.02;2.65;;;11.40;99.90;;;;;;4166537;28;20029;-69
2022/01/03 10:57:18;;;;;;;18.15;3.85;;;11.40;99.90;;;;;;4167472;28;20057;-68
2022/01/03 10:59:30;;;;;;;15.05;3.10;;;11.50;99.90;;;;;;4166252;28;20503;-68
2022/01/03 11:01:34;;;;;;;15.70;3.38;;;11.50;99.90;;;;;;4165719;28;20033;-68
2022/01/03 11:03:41;;;;;;;21.98;3.53;;;11.50;99.90;;;;;;4164225;28;20053;-70
2022/01/03 11:05:50;;;;;;;15.35;3.10;;;11.50;99.90;;;;;;4165404;28;20032;-69
2022/01/03 11:12:39;;;;;;;9.32;3.08;;;11.50;99.90;;;;;;4167150;28;20046;-68
2022/01/03 11:14:42;;;;;;;16.95;3.65;;;11.50;99.90;;;;;;4156480;28;20044;-69
2022/01/03 11:16:45;;;;;;;12.98;3.40;;;11.50;99.90;;;;;;4149144;28;20070;-69
2022/01/03 11:18:47;;;;;;;13.25;3.17;;;11.50;99.90;;;;;;4163354;28;20040;-69
2022/01/03 11:21:14;;;;;;;17.42;3.47;;;11.60;99.90;;;;;;4164376;28;20029;-69
2022/01/03 11:23:20;;;;;;;14.55;3.08;;;11.50;99.90;;;;;;4163951;28;20021;-69
2022/01/03 11:25:32;;;;;;;14.73;2.75;;;11.50;99.90;;;;;;4164946;28;20053;-69
2022/01/03 11:27:38;;;;;;;14.95;2.75;;;11.60;99.90;;;;;;4163405;28;20491;-69
2022/01/03 11:29:39;;;;;;;14.88;3.08;;;11.50;99.90;;;;;;4163885;28;20209;-69
2022/01/03 11:31:40;;;;;;;24.33;3.80;;;11.60;99.90;;;;;;4163689;28;20129;-69
2022/01/03 11:33:41;;;;;;;13.52;2.83;;;11.50;99.90;;;;;;4148471;28;20029;-69
2022/01/03 11:35:50;;;;;;;12.63;2.75;;;11.50;99.90;;;;;;4162929;28;20740;-69
2022/01/03 11:37:52;;;;;;;16.83;3.60;;;11.60;99.90;;;;;;4163618;28;20045;-69
2022/01/03 11:39:53;;;;;;;;;;;11.50;99.90;;;;;;4166928;28;20053;-69
2022/01/03 11:41:55;;;;;;;12.43;2.67;;;11.60;99.90;;;;;;4165239;28;19956;-69
2022/01/03 11:43:56;;;;;;;16.10;3.00;;;11.60;99.90;;;;;;4164645;28;20119;-69
2022/01/03 11:45:57;;;;;;;13.45;3.08;;;11.60;99.90;;;;;;4165060;28;20064;-69
2022/01/03 11:47:59;;;;;;;17.13;3.38;;;11.60;99.90;;;;;;4163113;28;20041;-69